Terminal Aerodrome Forecast
Issued by NWS

Home | Current Version | Previous Version | Text Only | Print | Product List | Glossary On
Versions: 1 2 3 4 5 6 7 8 9 10 11 12 13 14 15 16 17 18
000
FTUS42 TJSJ 201700
TAFJSJ
TAF
TJSJ 201740Z 2018/2118 VRB06KT P6SM VCSH SCT040
     FM202150 10006KT P6SM SKC
     FM211250 06013KT P6SM FEW030=

USA.gov is the U.S. government's official web portal to all federal, state and local government web resources and services.